Time;durP1;ratioP1;P1;durP2;ratioP2;P2;SDS_P1;SDS_P2;PMS_P1;PMS_P2;Temp;Humidity;BMP_temperature;BMP_pressure;BME280_temperature;BME280_humidity;BME280_pressure;Samples;Min_cycle;Max_cycle;Signal;HPM_P1;HPM_P2
2022/05/30 00:01:17;;;;;;;3.17;1.80;;;;;;;11.38;95.85;99852.78;5590150;31;35270;-67
2022/05/30 00:04:20;;;;;;;2.25;1.52;;;;;;;11.48;95.36;99840.03;5590070;31;34138;-66
2022/05/30 00:07:23;;;;;;;3.03;1.50;;;;;;;11.54;93.55;99843.78;5590144;31;34130;-66
2022/05/30 00:10:27;;;;;;;3.62;1.77;;;;;;;11.58;92.75;99837.09;5590144;31;34402;-67
2022/05/30 00:13:30;;;;;;;2.62;1.50;;;;;;;11.52;92.30;99832.53;5589341;31;34022;-66
2022/05/30 00:16:34;;;;;;;2.15;1.55;;;;;;;11.59;91.57;99826.28;5589282;31;34642;-66
2022/05/30 00:19:38;;;;;;;2.85;1.70;;;;;;;11.65;89.24;99816.72;5589598;31;33985;-66
2022/05/30 00:22:41;;;;;;;2.90;1.50;;;;;;;11.63;88.79;99821.41;5589270;31;35171;-66
2022/05/30 00:25:44;;;;;;;4.00;1.33;;;;;;;11.71;87.76;99823.97;5589904;31;35334;-68
2022/05/30 00:28:47;;;;;;;4.57;1.55;;;;;;;11.82;86.70;99812.84;5576133;31;32514;-66
2022/05/30 00:31:50;;;;;;;2.62;1.48;;;;;;;11.66;86.13;99807.75;5589727;31;34011;-66
2022/05/30 00:34:53;;;;;;;2.60;1.30;;;;;;;11.69;84.83;99818.81;5589807;31;34789;-66
2022/05/30 00:37:56;;;;;;;3.83;1.50;;;;;;;11.74;84.29;99807.66;5589962;31;33994;-67
2022/05/30 00:40:59;;;;;;;2.22;1.23;;;;;;;11.70;83.31;99799.22;5589161;31;34710;-66
2022/05/30 00:44:02;;;;;;;2.40;1.20;;;;;;;11.75;83.72;99799.50;5590228;31;33917;-66
2022/05/30 00:47:05;;;;;;;1.85;1.10;;;;;;;11.75;82.94;99798.69;5589754;31;33975;-67
2022/05/30 00:50:08;;;;;;;3.17;1.10;;;;;;;11.81;83.95;99789.97;5589872;31;34004;-67
2022/05/30 00:53:12;;;;;;;2.85;1.30;;;;;;;11.80;85.06;99784.81;5590209;31;34015;-66
2022/05/30 00:56:15;;;;;;;1.77;1.30;;;;;;;11.70;83.84;99777.97;5589709;31;34025;-67
2022/05/30 00:59:18;;;;;;;1.75;1.00;;;;;;;11.64;85.22;99769.91;5589085;31;33267;-67
2022/05/30 01:02:23;;;;;;;2.83;1.37;;;;;;;11.69;82.62;99770.16;5589727;31;33925;-67
2022/05/30 01:08:48;;;;;;;4.07;1.50;;;;;;;11.70;82.33;99770.00;5589920;31;34203;-67
2022/05/30 01:12:00;;;;;;;2.47;1.23;;;;;;;11.70;84.14;99770.00;5589563;31;34066;-66
2022/05/30 01:15:05;;;;;;;2.00;1.10;;;;;;;11.65;84.13;99766.25;5589551;31;34641;-67
2022/05/30 01:18:12;;;;;;;3.25;1.30;;;;;;;11.72;84.57;99762.66;5588853;31;34476;-68
2022/05/30 01:21:39;;;;;;;1.35;1.12;;;;;;;11.79;84.81;99764.56;5589803;31;35146;-67
2022/05/30 01:25:07;;;;;;;1.98;1.08;;;;;;;11.79;82.98;99760.09;5588728;31;33950;-67
2022/05/30 01:28:23;;;;;;;1.73;1.20;;;;;;;11.66;83.36;99763.41;5589337;31;34604;-67
2022/05/30 01:31:27;;;;;;;3.12;1.20;;;;;;;11.57;83.98;99753.91;5589376;31;35167;-67
2022/05/30 01:34:31;;;;;;;1.75;1.10;;;;;;;11.72;85.06;99745.88;5589361;31;34036;-67
2022/05/30 01:37:34;;;;;;;1.48;0.98;;;;;;;11.71;85.09;99752.22;5589135;31;34249;-67
2022/05/30 01:40:37;;;;;;;2.62;1.23;;;;;;;11.64;84.00;99746.81;5589568;31;33979;-67
2022/05/30 01:43:40;;;;;;;1.98;1.10;;;;;;;11.68;84.69;99749.91;5588052;31;35223;-67
2022/05/30 01:46:43;;;;;;;1.67;1.17;;;;;;;11.64;84.04;99741.50;5588561;31;33475;-68
2022/05/30 01:49:46;;;;;;;2.28;1.10;;;;;;;11.59;85.51;99738.59;5589030;31;34324;-67
2022/05/30 01:52:49;;;;;;;1.42;1.00;;;;;;;11.58;85.37;99744.91;5589009;31;34095;-67
2022/05/30 01:55:53;;;;;;;1.70;1.10;;;;;;;11.57;85.65;99748.59;5588811;31;34701;-67
2022/05/30 01:58:56;;;;;;;3.10;1.30;;;;;;;11.59;86.33;99751.06;5574784;31;32771;-67
2022/05/30 02:02:01;;;;;;;1.80;1.20;;;;;;;11.66;86.61;99755.44;5589218;31;34564;-67
2022/05/30 02:05:06;;;;;;;3.50;1.25;;;;;;;11.63;87.63;99750.50;5588795;31;33925;-67
2022/05/30 02:08:09;;;;;;;1.67;1.02;;;;;;;11.67;87.51;99746.44;5588657;31;34514;-67
2022/05/30 02:11:13;;;;;;;1.52;1.17;;;;;;;11.61;85.78;99743.75;5588769;31;34038;-66
2022/05/30 02:14:15;;;;;;;0.90;0.85;;;;;;;11.64;81.65;99752.16;5588644;31;34583;-67
2022/05/30 02:17:19;;;;;;;7.53;1.50;;;;;;;11.73;85.79;99758.19;5588525;31;34000;-67
2022/05/30 02:20:21;;;;;;;8.40;1.60;;;;;;;11.70;85.43;99762.03;5587884;31;34596;-67
2022/05/30 02:23:25;;;;;;;2.30;1.12;;;;;;;11.73;82.86;99753.69;5588514;31;34039;-66
2022/05/30 02:26:27;;;;;;;2.67;1.17;;;;;;;11.70;80.82;99755.88;5588575;31;34669;-67
2022/05/30 02:29:30;;;;;;;1.58;1.00;;;;;;;11.77;84.18;99764.75;5585146;31;103191;-67
2022/05/30 02:32:33;;;;;;;2.25;1.10;;;;;;;11.75;84.62;99762.31;5587515;31;34518;-67
2022/05/30 02:38:57;;;;;;;1.58;0.95;;;;;;;11.91;78.07;99755.88;5587498;31;34259;-67
2022/05/30 02:42:04;;;;;;;4.47;1.20;;;;;;;11.80;78.83;99764.37;5587189;31;33322;-66
2022/05/30 02:45:07;;;;;;;2.25;0.90;;;;;;;11.86;78.52;99754.84;5588343;31;34942;-66
2022/05/30 02:48:10;;;;;;;1.52;0.93;;;;;;;11.87;78.66;99772.41;5588017;31;34517;-67
2022/05/30 02:51:13;;;;;;;1.60;0.90;;;;;;;11.83;79.03;99771.16;5574170;31;33081;-66
2022/05/30 02:54:16;;;;;;;2.20;1.00;;;;;;;11.88;78.30;99772.22;5587959;31;34078;-67
2022/05/30 02:57:21;;;;;;;3.42;1.27;;;;;;;11.87;78.51;99777.72;5590649;31;34743;-67
2022/05/30 03:00:26;;;;;;;2.85;1.10;;;;;;;11.99;79.43;99792.97;5590625;31;34564;-67
2022/05/30 03:03:30;;;;;;;1.23;0.90;;;;;;;11.91;78.32;99790.44;5589949;31;33888;-67
2022/05/30 03:06:33;;;;;;;3.10;1.00;;;;;;;11.89;78.67;99803.09;5590933;31;34703;-67
2022/05/30 03:09:36;;;;;;;1.62;1.20;;;;;;;12.08;82.10;99799.81;5590589;31;34201;-66
2022/05/30 03:12:40;;;;;;;2.47;1.12;;;;;;;11.93;79.20;99804.38;5590673;31;34049;-67
2022/05/30 03:15:43;;;;;;;1.65;1.10;;;;;;;12.00;79.19;99807.94;5590979;31;35327;-67
2022/05/30 03:18:46;;;;;;;2.65;1.12;;;;;;;12.03;79.97;99807.53;5589677;31;33168;-67
2022/05/30 03:21:49;;;;;;;3.50;1.10;;;;;;;12.12;81.41;99802.91;5590540;31;34033;-67
2022/05/30 03:24:52;;;;;;;2.12;0.90;;;;;;;11.99;79.16;99800.97;5590926;31;34001;-67
2022/05/30 03:27:56;;;;;;;3.60;1.23;;;;;;;12.07;79.74;99803.47;5590670;31;33995;-68
2022/05/30 03:30:59;;;;;;;3.60;1.30;;;;;;;11.98;79.43;99804.63;5589895;31;33867;-69
2022/05/30 03:34:03;;;;;;;3.47;1.27;;;;;;;11.97;79.90;99821.56;5590528;31;34346;-69
2022/05/30 03:37:06;;;;;;;2.28;1.02;;;;;;;12.00;79.99;99823.88;5590180;31;34755;-68
2022/05/30 03:40:12;;;;;;;1.62;1.10;;;;;;;12.12;79.09;99819.69;5590207;31;34847;-68
2022/05/30 03:43:32;;;;;;;1.95;0.95;;;;;;;12.20;79.47;99827.50;5590295;31;34553;-68
2022/05/30 03:46:35;;;;;;;1.20;1.00;;;;;;;12.09;78.83;99822.72;5590238;31;34229;-68
2022/05/30 03:49:38;;;;;;;2.67;1.00;;;;;;;12.13;78.99;99820.50;5589532;31;34016;-68
2022/05/30 03:52:41;;;;;;;1.62;1.00;;;;;;;12.17;79.62;99817.28;5590516;31;34017;-67
2022/05/30 03:55:45;;;;;;;2.20;1.00;;;;;;;12.20;79.95;99822.19;5590608;31;34095;-68
2022/05/30 03:58:48;;;;;;;2.90;1.20;;;;;;;12.24;80.25;99822.66;5590121;31;34538;-68
2022/05/30 04:01:51;;;;;;;2.47;1.00;;;;;;;12.28;80.57;99815.94;5590220;31;34641;-67
2022/05/30 04:04:55;;;;;;;1.98;1.10;;;;;;;12.09;80.66;99817.41;5590042;31;33919;-67
2022/05/30 04:07:58;;;;;;;1.77;1.17;;;;;;;12.13;80.77;99812.53;5589817;31;34025;-68
2022/05/30 04:11:02;;;;;;;2.33;1.50;;;;;;;12.05;80.91;99810.00;5589989;31;34937;-68
2022/05/30 04:14:07;;;;;;;1.98;1.10;;;;;;;12.08;80.87;99812.28;5590470;31;33919;-67
2022/05/30 04:17:10;;;;;;;1.37;1.08;;;;;;;12.07;80.21;99811.44;5590112;31;34025;-67
2022/05/30 04:20:14;;;;;;;1.55;1.00;;;;;;;12.02;80.57;99827.16;5590000;31;34017;-67
2022/05/30 04:23:17;;;;;;;2.22;1.05;;;;;;;12.16;80.02;99822.78;5589081;31;34560;-67
2022/05/30 04:26:23;;;;;;;3.90;1.50;;;;;;;12.16;79.70;99828.09;5590245;31;33944;-68
2022/05/30 04:29:29;;;;;;;1.87;1.10;;;;;;;12.33;80.24;99836.62;5589955;31;33964;-69
2022/05/30 04:32:34;;;;;;;1.10;0.90;;;;;;;12.28;80.41;99837.22;5590213;31;34253;-69
2022/05/30 04:35:37;;;;;;;3.53;1.10;;;;;;;12.27;80.05;99837.38;5589966;31;35195;-69
2022/05/30 04:38:40;;;;;;;3.50;1.20;;;;;;;12.47;80.32;99828.56;5588770;31;32657;-69
2022/05/30 04:41:46;;;;;;;2.75;1.23;;;;;;;12.87;79.17;99847.47;5589264;31;37132;-69
2022/05/30 04:44:52;;;;;;;2.75;1.60;;;;;;;12.82;78.92;99845.41;5589215;31;33934;-69
2022/05/30 04:47:56;;;;;;;1.85;1.27;;;;;;;12.82;78.80;99844.56;5589743;31;34065;-70
2022/05/30 04:50:59;;;;;;;3.22;1.50;;;;;;;12.89;78.55;99859.56;5589839;31;35244;-68
2022/05/30 04:54:03;;;;;;;2.17;1.30;;;;;;;13.18;77.31;99855.84;5589859;31;33938;-68
2022/05/30 04:57:06;;;;;;;5.85;1.40;;;;;;;13.21;77.48;99859.97;5590087;31;34474;-68
2022/05/30 05:00:11;;;;;;;1.85;1.23;;;;;;;13.15;76.47;99856.25;5588773;31;32613;-68
2022/05/30 05:03:15;;;;;;;3.58;1.40;;;;;;;12.96;77.77;99863.09;5589610;31;34004;-69
2022/05/30 05:06:20;;;;;;;3.35;1.85;;;;;;;13.06;77.34;99871.56;5589579;31;33940;-69
2022/05/30 05:09:52;;;;;;;2.40;1.30;;;;;;;13.20;77.74;99861.81;5589469;31;33940;-68
2022/05/30 05:12:57;;;;;;;3.42;1.30;;;;;;;13.36;78.17;99861.47;5589169;31;34370;-69
2022/05/30 05:16:09;;;;;;;1.70;1.17;;;;;;;13.64;76.53;99871.22;5589382;31;33909;-69
2022/05/30 05:19:12;;;;;;;2.67;1.35;;;;;;;13.98;75.09;99878.31;5575716;31;33993;-67
2022/05/30 05:22:15;;;;;;;1.90;1.23;;;;;;;14.19;72.56;99878.94;5589267;31;33917;-68
2022/05/30 05:25:19;;;;;;;2.83;1.30;;;;;;;13.95;71.55;99882.19;5588964;31;33963;-68
2022/05/30 05:28:24;;;;;;;2.40;1.30;;;;;;;14.49;72.15;99890.09;5588671;31;35478;-67
2022/05/30 05:31:34;;;;;;;3.25;1.80;;;;;;;14.60;68.72;99881.47;5589269;31;33801;-68
2022/05/30 05:34:37;;;;;;;3.33;1.30;;;;;;;14.49;69.85;99882.09;5588456;31;34004;-69
2022/05/30 05:37:40;;;;;;;4.47;1.33;;;;;;;14.50;71.22;99893.59;5588820;31;34585;-69
2022/05/30 05:40:45;;;;;;;2.50;1.25;;;;;;;14.73;69.51;99891.31;5587760;31;32407;-68
2022/05/30 05:43:49;;;;;;;1.75;0.98;;;;;;;14.66;68.29;99894.00;5588938;31;34758;-68
2022/05/30 05:46:57;;;;;;;1.50;1.20;;;;;;;14.87;67.46;99898.28;5588070;31;33827;-68
2022/05/30 05:50:00;;;;;;;1.67;0.88;;;;;;;15.09;66.79;99898.88;5587694;31;33644;-68
2022/05/30 05:53:03;;;;;;;5.07;1.42;;;;;;;15.59;64.77;99906.16;5588500;31;34693;-68
2022/05/30 05:56:21;;;;;;;;;;;;;;;15.46;64.40;99908.03;5588263;31;33965;-69
2022/05/30 05:59:24;;;;;;;2.78;1.17;;;;;;;15.72;62.27;99907.16;5588790;31;34839;-67
2022/05/30 06:02:28;;;;;;;3.22;1.10;;;;;;;15.60;64.47;99913.16;5588554;31;34103;-69
2022/05/30 06:05:31;;;;;;;2.10;1.12;;;;;;;15.92;65.09;99915.91;5588597;31;34216;-70
2022/05/30 06:08:41;;;;;;;3.10;1.05;;;;;;;16.30;63.92;99911.38;5588691;31;32196;-69
2022/05/30 06:11:44;;;;;;;2.78;1.10;;;;;;;16.32;60.11;99909.28;5588490;31;34407;-70
2022/05/30 06:14:47;;;;;;;1.55;1.00;;;;;;;16.07;60.65;99906.53;5586700;31;33448;-68
2022/05/30 06:17:50;;;;;;;2.95;0.93;;;;;;;15.88;60.45;99920.03;5588115;31;34063;-67
2022/05/30 06:20:57;;;;;;;2.53;1.20;;;;;;;15.65;61.52;99925.87;5587828;31;34555;-68
2022/05/30 06:24:05;;;;;;;5.03;1.10;;;;;;;15.31;63.30;99918.97;5588097;31;33988;-68
2022/05/30 06:27:17;;;;;;;2.15;1.25;;;;;;;15.70;64.66;99926.06;5588251;31;34051;-68
2022/05/30 06:30:20;;;;;;;2.55;1.00;;;;;;;15.72;63.02;99921.34;5589609;31;33982;-68
2022/05/30 06:33:23;;;;;;;2.33;1.00;;;;;;;15.87;62.22;99916.56;5590645;31;34303;-68
2022/05/30 06:36:26;;;;;;;3.75;1.30;;;;;;;15.56;62.24;99922.63;5590563;31;34093;-68
2022/05/30 06:39:29;;;;;;;5.97;1.40;;;;;;;15.81;64.75;99924.59;5590532;31;34678;-68
2022/05/30 06:42:32;;;;;;;3.20;1.20;;;;;;;16.09;65.46;99923.22;5589955;31;33877;-68
2022/05/30 06:45:47;;;;;;;1.50;1.12;;;;;;;16.19;63.38;99930.78;5589661;31;32436;-68
2022/05/30 06:49:01;;;;;;;2.58;1.10;;;;;;;16.06;62.46;99930.84;5590755;31;33967;-68
2022/05/30 06:52:04;;;;;;;1.58;0.98;;;;;;;16.06;63.99;99939.72;5590640;31;34715;-67
2022/05/30 06:55:08;;;;;;;1.75;1.00;;;;;;;16.01;61.43;99936.84;5590835;31;33871;-67
2022/05/30 06:58:13;;;;;;;5.30;1.10;;;;;;;15.94;61.06;99930.69;5589647;31;33900;-69
2022/05/30 07:01:29;;;;;;;4.03;1.20;;;;;;;16.16;63.31;99933.06;5590050;31;33903;-68
2022/05/30 07:04:36;;;;;;;3.50;1.30;;;;;;;16.50;60.56;99932.66;5589769;31;36051;-68
2022/05/30 07:07:43;;;;;;;2.33;1.08;;;;;;;17.14;59.09;99947.56;5589207;31;32558;-68
2022/05/30 07:10:51;;;;;;;2.30;1.10;;;;;;;16.89;57.06;99939.59;5590186;31;33979;-69
2022/05/30 07:13:54;;;;;;;5.53;1.00;;;;;;;16.95;58.63;99939.50;5590437;31;33883;-69
2022/05/30 07:16:58;;;;;;;2.50;1.20;;;;;;;17.47;58.03;99941.91;5590340;31;34469;-69
2022/05/30 07:20:02;;;;;;;6.37;1.35;;;;;;;18.46;54.95;99936.09;5590307;31;34612;-69
2022/05/30 07:23:10;;;;;;;2.55;0.93;;;;;;;18.65;51.26;99943.03;5590463;31;34264;-70
2022/05/30 07:26:22;;;;;;;4.35;1.20;;;;;;;19.05;51.24;99938.66;5589521;31;33032;-69
2022/05/30 07:29:28;;;;;;;1.90;0.90;;;;;;;19.16;50.94;99938.91;5589561;31;33345;-69
2022/05/30 07:32:45;;;;;;;1.58;0.88;;;;;;;18.73;51.54;99929.28;5590106;31;33776;-69
2022/05/30 07:36:08;;;;;;;1.52;0.73;;;;;;;19.07;51.83;99927.69;5590191;31;33964;-69
2022/05/30 07:39:12;;;;;;;2.70;0.77;;;;;;;20.19;47.63;99931.66;5590534;31;34116;-69
2022/05/30 07:42:15;;;;;;;2.20;0.80;;;;;;;20.22;44.86;99933.06;5589036;31;33949;-69
2022/05/30 07:45:18;;;;;;;2.05;0.70;;;;;;;19.75;46.70;99945.88;5590275;31;34584;-67
2022/05/30 07:48:24;;;;;;;1.17;0.80;;;;;;;19.48;44.99;99943.69;5589912;31;34317;-70
2022/05/30 07:51:27;;;;;;;1.50;0.82;;;;;;;19.61;46.21;99936.41;5589890;31;34609;-69
2022/05/30 07:54:30;;;;;;;7.20;1.52;;;;;;;19.35;44.99;99943.91;5589865;31;34552;-70
2022/05/30 07:57:51;;;;;;;1.83;0.70;;;;;;;19.91;44.50;99942.41;5590280;31;34232;-69
2022/05/30 08:00:54;;;;;;;1.92;1.20;;;;;;;20.25;43.91;99946.03;5589925;31;34597;-67
2022/05/30 08:03:57;;;;;;;4.25;1.42;;;;;;;18.86;48.70;99947.06;5588932;31;32795;-68
2022/05/30 08:07:04;;;;;;;2.67;0.88;;;;;;;18.06;51.02;99944.69;5590024;31;34392;-68
2022/05/30 08:10:10;;;;;;;2.47;0.85;;;;;;;17.49;52.26;99945.16;5589880;31;34321;-68
2022/05/30 08:13:13;;;;;;;2.92;0.90;;;;;;;18.05;52.16;99948.44;5589507;31;34686;-69
2022/05/30 08:16:21;;;;;;;1.23;0.70;;;;;;;18.45;50.82;99946.00;5589680;31;35468;-67
2022/05/30 08:19:44;;;;;;;1.33;0.70;;;;;;;19.15;49.07;99950.69;5589822;31;34111;-68
2022/05/30 08:22:52;;;;;;;2.40;0.93;;;;;;;19.26;48.39;99953.41;5589893;31;34333;-68
2022/05/30 08:25:56;;;;;;;1.62;0.90;;;;;;;20.25;45.51;99960.31;5590077;31;34527;-69
2022/05/30 08:28:59;;;;;;;2.35;0.80;;;;;;;20.00;45.87;99954.44;5588542;31;32604;-70
2022/05/30 08:32:04;;;;;;;1.55;0.90;;;;;;;21.39;42.47;99960.94;5575569;31;33447;-70
2022/05/30 08:35:13;;;;;;;1.70;0.80;;;;;;;22.78;38.34;99969.31;5589963;31;33927;-73
2022/05/30 08:38:16;;;;;;;3.50;0.90;;;;;;;21.76;41.59;99971.13;5588459;31;33985;-69
2022/05/30 08:44:42;;;;;;;3.45;0.82;;;;;;;20.89;43.47;99971.72;5589497;31;34675;-69
2022/05/30 08:47:48;;;;;;;1.62;0.95;;;;;;;20.32;44.26;99969.13;5589418;31;34187;-68
2022/05/30 08:51:49;;;;;;;2.72;1.00;;;;;;;20.16;43.97;99956.37;5589614;31;33302;-68
2022/05/30 08:55:07;;;;;;;2.10;1.05;;;;;;;20.13;45.33;99938.03;5529328;32;34565;-67
2022/05/30 08:58:36;;;;;;;2.10;0.80;;;;;;;19.08;48.34;99948.13;5532086;31;33944;-69
2022/05/30 09:01:45;;;;;;;2.60;0.95;;;;;;;19.79;46.04;99968.56;5589411;31;35200;-66
2022/05/30 09:05:05;;;;;;;2.25;1.00;;;;;;;19.91;45.71;99964.78;5589205;31;34582;-70
2022/05/30 09:08:33;;;;;;;4.20;0.90;;;;;;;19.61;47.20;99980.28;5588434;31;34053;-70
2022/05/30 09:11:52;;;;;;;1.75;0.90;;;;;;;20.19;46.30;99982.00;5589195;31;34068;-70
2022/05/30 09:15:05;;;;;;;1.90;0.83;;;;;;;21.19;43.57;99980.34;5589162;31;35439;-69
2022/05/30 09:18:18;;;;;;;2.10;0.80;;;;;;;21.83;40.98;99977.16;5589005;31;34129;-70
2022/05/30 09:21:22;;;;;;;2.80;0.80;;;;;;;22.43;41.46;99977.87;5589301;31;34609;-70
2022/05/30 09:24:25;;;;;;;2.40;1.00;;;;;;;21.10;43.61;99975.56;5589439;31;34155;-69
2022/05/30 09:27:28;;;;;;;2.37;1.42;;;;;;;20.99;43.50;99985.37;5587864;31;33723;-69
2022/05/30 09:30:40;;;;;;;2.33;1.20;;;;;;;21.49;43.14;99981.84;5587734;31;32524;-70
2022/05/30 09:34:06;;;;;;;3.35;0.90;;;;;;;20.62;44.69;99976.13;5588544;31;35032;-67
2022/05/30 09:37:33;;;;;;;3.72;1.12;;;;;;;21.06;43.27;99988.69;5589339;31;33974;-66
2022/05/30 09:40:47;;;;;;;2.60;1.10;;;;;;;19.77;47.61;99986.81;5591572;31;35133;-69
2022/05/30 09:44:03;;;;;;;5.22;1.15;;;;;;;19.58;48.02;99982.62;5591043;31;33946;-69
2022/05/30 09:47:17;;;;;;;1.55;0.88;;;;;;;20.85;45.67;99985.94;5589169;31;34142;-69
2022/05/30 09:50:23;;;;;;;1.27;0.80;;;;;;;21.56;44.70;99980.59;5588226;31;33026;-69
2022/05/30 09:53:46;;;;;;;4.50;1.05;;;;;;;21.76;41.86;99990.84;5590003;31;33911;-67
2022/05/30 09:56:52;;;;;;;2.10;1.10;;;;;;;20.49;44.32;100001.47;5588770;31;34822;-69
2022/05/30 10:00:12;;;;;;;1.95;1.10;;;;;;;19.75;47.54;99995.13;5589062;31;33972;-68
2022/05/30 10:03:33;;;;;;;2.25;0.90;;;;;;;19.86;48.03;99998.84;5574295;31;33288;-67
2022/05/30 10:06:38;;;;;;;1.42;0.80;;;;;;;19.94;46.65;99999.28;5588950;31;35222;-67
2022/05/30 10:10:11;;;;;;;3.47;1.05;;;;;;;19.77;47.54;100001.09;5587559;31;32170;-69
2022/05/30 10:13:31;;;;;;;1.70;1.05;;;;;;;19.84;47.45;100004.50;5587837;31;34219;-69
2022/05/30 10:16:35;;;;;;;2.08;1.00;;;;;;;19.96;46.88;100016.03;5588509;31;33995;-68
2022/05/30 10:19:45;;;;;;;2.87;0.90;;;;;;;20.36;44.97;100012.56;5588631;31;33877;-69
2022/05/30 10:31:08;;;;;;;2.55;0.93;;;;;;;20.35;43.98;99995.56;5571899;31;35239;-70
2022/05/30 10:34:47;;;;;;;4.65;1.17;;;;;;;21.03;43.86;99999.19;5551599;31;33217;-69
2022/05/30 10:38:30;;;;;;;2.08;1.00;;;;;;;21.40;42.64;99999.50;5588724;31;33871;-70
2022/05/30 10:41:54;;;;;;;3.95;0.93;;;;;;;21.80;41.87;100002.78;5525172;31;33941;-68
2022/05/30 10:45:05;;;;;;;2.00;0.80;;;;;;;22.25;41.33;100004.44;5588113;31;34352;-68
2022/05/30 10:48:18;;;;;;;2.12;0.98;;;;;;;21.81;41.54;100015.22;5586933;31;32777;-69
2022/05/30 10:51:26;;;;;;;2.97;1.20;;;;;;;20.95;43.06;100018.47;5587823;31;33979;-67
2022/05/30 10:54:39;;;;;;;1.57;1.00;;;;;;;20.08;46.21;100029.47;5587189;31;33156;-68
2022/05/30 10:57:45;;;;;;;12.32;1.58;;;;;;;19.47;46.50;100025.44;5587806;31;33961;-67
2022/05/30 11:00:55;;;;;;;1.48;0.90;;;;;;;19.31;46.83;100020.75;5587788;31;34040;-70
2022/05/30 11:04:18;;;;;;;1.27;0.90;;;;;;;19.13;48.31;100012.78;5587036;31;34611;-70
2022/05/30 11:07:42;;;;;;;2.65;1.05;;;;;;;19.82;46.65;100013.84;5587594;31;34592;-67
2022/05/30 11:10:51;;;;;;;1.45;0.90;;;;;;;20.38;45.72;100010.44;5587525;31;34537;-68
2022/05/30 11:14:10;;;;;;;2.60;1.12;;;;;;;20.46;44.79;100015.44;5587901;31;35129;-67
2022/05/30 11:17:38;;;;;;;2.08;0.90;;;;;;;20.10;45.36;100029.22;5589509;31;34551;-69
2022/05/30 11:20:51;;;;;;;1.00;0.80;;;;;;;20.24;45.30;100044.88;5590482;31;34037;-69
2022/05/30 11:23:53;;;;;;;3.45;1.23;;;;;;;20.41;44.93;100047.69;5590836;31;34224;-68
2022/05/30 11:27:28;;;;;;;4.15;0.90;;;;;;;19.93;45.86;100045.31;5590685;31;34623;-68
2022/05/30 11:30:46;;;;;;;1.85;0.82;;;;;;;19.43;46.39;100036.87;5576940;31;34083;-69
2022/05/30 11:34:08;;;;;;;2.47;1.00;;;;;;;19.52;47.53;100055.16;5590280;31;34039;-68
2022/05/30 11:37:26;;;;;;;3.40;1.00;;;;;;;18.67;48.21;100038.50;5590322;31;34142;-69
2022/05/30 11:40:55;;;;;;;8.90;1.58;;;;;;;18.58;49.49;100053.31;5589049;31;33244;-69
2022/05/30 11:44:20;;;;;;;1.75;1.00;;;;;;;18.46;50.29;100043.53;5589441;31;34106;-69
2022/05/30 11:47:52;;;;;;;4.40;1.20;;;;;;;18.59;50.42;100033.44;5590224;31;34566;-68
2022/05/30 11:51:16;;;;;;;2.17;0.93;;;;;;;18.74;49.45;100043.78;5590194;31;35234;-68
2022/05/30 11:54:56;;;;;;;2.87;1.23;;;;;;;18.61;49.73;100031.34;5589479;31;33473;-69
2022/05/30 11:58:09;;;;;;;1.65;1.00;;;;;;;19.58;48.10;100049.91;5589493;31;34197;-68
2022/05/30 12:01:14;;;;;;;3.35;1.10;;;;;;;18.71;48.81;100038.88;5589975;31;33936;-69
2022/05/30 12:04:35;;;;;;;2.37;1.02;;;;;;;18.86;48.60;100030.37;5589818;31;34016;-67
2022/05/30 12:08:15;;;;;;;0.98;0.80;;;;;;;20.00;45.10;100024.44;5590143;31;35317;-67
2022/05/30 12:11:56;;;;;;;2.28;1.08;;;;;;;20.70;43.29;100043.09;5590107;31;34085;-68
2022/05/30 12:15:20;;;;;;;2.55;0.98;;;;;;;19.83;44.47;100037.03;5590167;31;34164;-68
2022/05/30 12:25:36;;;;;;;1.75;1.00;;;;;;;19.48;46.34;100042.41;5589773;31;34614;-70
2022/05/30 12:28:41;;;;;;;3.70;1.10;;;;;;;18.96;48.84;100039.53;5589201;31;33941;-69
2022/05/30 12:31:44;;;;;;;3.28;1.20;;;;;;;19.08;46.93;100039.53;5589709;31;34028;-68
2022/05/30 12:35:18;;;;;;;2.00;0.90;;;;;;;18.73;47.89;100044.03;5590146;31;34616;-67
2022/05/30 12:39:13;;;;;;;2.22;0.80;;;;;;;18.92;48.92;100038.34;5589710;31;33891;-67
2022/05/30 12:42:32;;;;;;;2.37;1.00;;;;;;;18.32;48.27;100026.78;5579798;31;34401;-68
2022/05/30 12:45:43;;;;;;;2.37;0.85;;;;;;;18.64;47.68;100027.37;5589051;31;33424;-68
2022/05/30 12:49:14;;;;;;;1.92;0.98;;;;;;;19.07;47.73;100033.34;5589107;31;32502;-67
2022/05/30 12:52:20;;;;;;;1.23;0.70;;;;;;;19.29;45.28;100036.31;5589135;31;32725;-69
2022/05/30 12:55:45;;;;;;;1.98;1.00;;;;;;;19.39;44.52;100036.53;5589081;31;33287;-69
2022/05/30 12:58:48;;;;;;;1.25;0.77;;;;;;;19.48;44.54;100027.09;5588996;31;33705;-69
2022/05/30 13:01:54;;;;;;;2.05;0.80;;;;;;;19.62;43.62;100024.97;5575817;31;32468;-70
2022/05/30 13:05:15;;;;;;;1.40;0.77;;;;;;;19.27;45.21;100016.87;5589460;31;34366;-69
2022/05/30 13:08:55;;;;;;;4.18;1.20;;;;;;;19.55;45.29;100021.59;5588633;31;34027;-68
2022/05/30 13:12:10;;;;;;;1.80;1.00;;;;;;;19.48;44.88;100021.72;5589272;31;34629;-70
2022/05/30 13:15:19;;;;;;;1.73;0.80;;;;;;;19.87;44.84;100019.34;5588606;31;33068;-67
2022/05/30 13:18:22;;;;;;;2.08;1.05;;;;;;;19.34;44.30;100019.47;5589176;31;34705;-68
2022/05/30 13:21:28;;;;;;;4.37;1.08;;;;;;;19.10;45.26;100018.62;5589343;31;34289;-69
2022/05/30 13:24:35;;;;;;;2.62;0.90;;;;;;;19.34;45.78;100022.16;5588622;31;34454;-69
2022/05/30 13:27:38;;;;;;;3.08;1.05;;;;;;;19.50;45.22;100033.06;5588605;31;34102;-69
2022/05/30 13:30:42;;;;;;;2.58;1.10;;;;;;;19.18;45.53;100026.34;5588763;31;34242;-69
2022/05/30 13:33:51;;;;;;;2.60;0.90;;;;;;;19.43;44.84;100026.13;5588867;31;33997;-69
2022/05/30 13:36:56;;;;;;;2.00;0.98;;;;;;;19.56;45.10;100030.50;5588568;31;32379;-69
2022/05/30 13:40:07;;;;;;;1.60;1.10;;;;;;;19.36;46.91;100031.62;5587215;31;33976;-69
2022/05/30 13:43:18;;;;;;;3.60;1.12;;;;;;;19.46;46.45;100036.47;5588870;31;34015;-69
2022/05/30 13:46:47;;;;;;;2.10;1.08;;;;;;;19.58;47.69;100036.44;5588127;31;33909;-65
2022/05/30 13:49:56;;;;;;;3.42;1.20;;;;;;;19.44;44.62;100038.56;5588512;31;34365;-67
2022/05/30 13:52:59;;;;;;;2.80;1.00;;;;;;;18.94;46.13;100041.63;5588988;31;33959;-68
2022/05/30 13:56:06;;;;;;;2.45;1.10;;;;;;;19.12;46.41;100046.91;5587939;31;34329;-69
2022/05/30 13:59:33;;;;;;;2.22;1.42;;;;;;;19.12;47.78;100047.97;5588469;31;34249;-68
2022/05/30 14:02:57;;;;;;;8.00;1.62;;;;;;;19.11;46.42;100044.47;5587893;31;34045;-69
2022/05/30 14:06:00;;;;;;;2.28;1.33;;;;;;;19.36;47.83;100034.31;5588486;31;34064;-69
2022/05/30 14:09:06;;;;;;;5.28;1.25;;;;;;;19.56;46.96;100041.25;5588376;31;34701;-69
2022/05/30 14:12:10;;;;;;;8.05;1.42;;;;;;;19.83;45.03;100040.53;5588109;31;34667;-69
2022/05/30 14:15:33;;;;;;;2.90;1.27;;;;;;;19.86;45.62;100042.75;5588461;31;34779;-67
2022/05/30 14:19:08;;;;;;;1.98;1.10;;;;;;;19.92;43.76;100047.19;5588184;31;34635;-66
2022/05/30 14:22:31;;;;;;;3.80;1.12;;;;;;;19.59;44.64;100063.13;5588141;31;34095;-68
2022/05/30 14:25:43;;;;;;;3.90;1.00;;;;;;;19.90;43.83;100051.97;5587746;31;34105;-68
2022/05/30 14:29:05;;;;;;;6.05;1.30;;;;;;;21.02;41.57;100051.47;5586933;31;33457;-70
2022/05/30 14:32:25;;;;;;;2.17;1.30;;;;;;;21.41;41.75;100049.72;5587901;31;33974;-67
2022/05/30 14:35:27;;;;;;;1.40;0.85;;;;;;;21.32;40.71;100043.91;5587891;31;34010;-66
2022/05/30 14:38:38;;;;;;;2.05;1.10;;;;;;;20.84;42.15;100049.81;5586652;31;34552;-69
2022/05/30 14:42:01;;;;;;;4.15;1.25;;;;;;;21.94;39.64;100038.34;5586439;31;34344;-70
2022/05/30 14:45:11;;;;;;;4.37;1.40;;;;;;;26.55;33.71;100039.16;5587119;31;34220;-67
2022/05/30 14:48:26;;;;;;;4.93;1.50;;;;;;;24.66;40.72;100038.91;5586514;31;32806;-69
2022/05/30 14:51:34;;;;;;;3.20;1.50;;;;;;;21.63;49.63;100047.91;5588953;31;34323;-68
2022/05/30 14:54:52;;;;;;;2.47;1.62;;;;;;;21.29;50.88;100057.91;5589932;31;34615;-70
2022/05/30 14:58:03;;;;;;;3.25;1.60;;;;;;;21.06;51.33;100061.53;5589302;31;33465;-67
2022/05/30 15:01:07;;;;;;;9.07;1.67;;;;;;;21.58;50.31;100058.63;5575853;31;33282;-68
2022/05/30 15:04:10;;;;;;;4.60;1.27;;;;;;;24.64;41.74;100058.13;5589778;31;34035;-70
2022/05/30 15:07:23;;;;;;;4.47;1.40;;;;;;;25.06;41.13;100057.16;5575178;31;32553;-67
2022/05/30 15:10:26;;;;;;;3.12;1.60;;;;;;;23.65;43.64;100052.00;5589346;31;33000;-71
2022/05/30 15:13:28;;;;;;;3.12;1.50;;;;;;;25.98;39.21;100053.28;5589958;31;32485;-67
2022/05/30 15:16:31;;;;;;;2.37;1.30;;;;;;;28.12;34.25;100050.66;5589805;31;33904;-70